WZZ5517 EPMO-LIME
Flight info
| Callsign | WZZ5517 |
|---|---|
| Flight time | N/A |
| Altitude | 36000 |
| Route | EVINA N744 TUSIN DCT MIKOV DCT DETSA DCT RENTA DCT ATPED M984 LUSIL T772 EKLIB |
| Aircraft | A21N/M-SDE1E2E3FGIJ1J4RWXY/LB1 |
Departure
| Time | 2026-04-30 13:09 |
|---|---|
| Airport | Warsaw Modlin Airport (EPMO) |
Arrival
| Time | N/A |
|---|---|
| Airport | Il Caravaggio International Airport (LIME) |
| Time | Latitude | Longitude | Altitude | Speed | Heading |
|---|---|---|---|---|---|
| 2026-04-30 12:38 | 52.44753 | 20.65339 | 352 ft | 0 kts | 206° |
| 2026-04-30 13:00 | 52.44766 | 20.65349 | 352 ft | 2 kts | 206° |
| 2026-04-30 13:01 | 52.44782 | 20.65360 | 352 ft | 3 kts | 174° |
| 2026-04-30 13:01 | 52.44795 | 20.65352 | 351 ft | 3 kts | 113° |
| 2026-04-30 13:01 | 52.44798 | 20.65331 | 350 ft | 1 kts | 81° |
| 2026-04-30 13:01 | 52.44796 | 20.65307 | 348 ft | 3 kts | 81° |
| 2026-04-30 13:02 | 52.44794 | 20.65293 | 350 ft | 0 kts | 81° |
| 2026-04-30 13:04 | 52.44796 | 20.65311 | 348 ft | 3 kts | 81° |
| 2026-04-30 13:04 | 52.44802 | 20.65369 | 351 ft | 7 kts | 81° |
| 2026-04-30 13:04 | 52.44811 | 20.65468 | 348 ft | 10 kts | 81° |
| 2026-04-30 13:04 | 52.44822 | 20.65594 | 349 ft | 12 kts | 82° |
| 2026-04-30 13:05 | 52.44834 | 20.65739 | 346 ft | 14 kts | 81° |
| 2026-04-30 13:05 | 52.44849 | 20.65900 | 343 ft | 15 kts | 81° |
| 2026-04-30 13:05 | 52.44866 | 20.66077 | 351 ft | 16 kts | 81° |
| 2026-04-30 13:06 | 52.44903 | 20.66474 | 345 ft | 19 kts | 81° |
| 2026-04-30 13:06 | 52.44923 | 20.66692 | 352 ft | 20 kts | 81° |
| 2026-04-30 13:06 | 52.44942 | 20.66892 | 348 ft | 13 kts | 81° |
| 2026-04-30 13:06 | 52.44956 | 20.67035 | 351 ft | 11 kts | 78° |
| 2026-04-30 13:07 | 52.45026 | 20.67077 | 346 ft | 13 kts | 355° |
| 2026-04-30 13:07 | 52.45118 | 20.67052 | 345 ft | 14 kts | 351° |
| 2026-04-30 13:07 | 52.45207 | 20.67022 | 345 ft | 12 kts | 343° |
| 2026-04-30 13:07 | 52.45272 | 20.66984 | 351 ft | 9 kts | 321° |
| 2026-04-30 13:08 | 52.45283 | 20.66894 | 344 ft | 6 kts | 261° |
| 2026-04-30 13:08 | 52.45273 | 20.66792 | 342 ft | 25 kts | 261° |
| 2026-04-30 13:08 | 52.45204 | 20.66059 | 344 ft | 103 kts | 262° |
| 2026-04-30 13:08 | 52.45057 | 20.64513 | 361 ft | 165 kts | 264° |
| 2026-04-30 13:09 | 52.44880 | 20.62643 | 993 ft | 165 kts | 266° |
| 2026-04-30 13:09 | 52.44730 | 20.60756 | 1763 ft | 168 kts | 265° |
| 2026-04-30 13:09 | 52.44563 | 20.58852 | 2478 ft | 169 kts | 265° |
| 2026-04-30 13:09 | 52.44404 | 20.56925 | 3173 ft | 171 kts | 265° |
| 2026-04-30 13:10 | 52.44243 | 20.54919 | 3659 ft | 191 kts | 265° |
| 2026-04-30 13:10 | 52.44074 | 20.52589 | 3967 ft | 222 kts | 263° |
| 2026-04-30 13:10 | 52.43325 | 20.50190 | 4307 ft | 257 kts | 226° |
| 2026-04-30 13:10 | 52.41735 | 20.48672 | 4944 ft | 274 kts | 200° |
| 2026-04-30 13:11 | 52.39913 | 20.47652 | 5807 ft | 279 kts | 200° |
| 2026-04-30 13:11 | 52.38082 | 20.46527 | 6702 ft | 283 kts | 202° |
| 2026-04-30 13:11 | 52.36274 | 20.45294 | 7530 ft | 288 kts | 204° |
| 2026-04-30 13:11 | 52.34432 | 20.43952 | 8330 ft | 292 kts | 205° |
| 2026-04-30 13:12 | 52.32568 | 20.42541 | 9128 ft | 298 kts | 206° |
| 2026-04-30 13:12 | 52.30680 | 20.41080 | 9929 ft | 303 kts | 206° |
| 2026-04-30 13:12 | 52.28761 | 20.39578 | 10652 ft | 310 kts | 206° |
| 2026-04-30 13:13 | 52.24653 | 20.36340 | 11429 ft | 345 kts | 206° |
| 2026-04-30 13:13 | 52.22453 | 20.34596 | 11937 ft | 356 kts | 206° |
| 2026-04-30 13:13 | 52.17923 | 20.31012 | 13325 ft | 367 kts | 206° |
| 2026-04-30 13:14 | 52.15611 | 20.29189 | 14023 ft | 372 kts | 205° |
| 2026-04-30 13:14 | 52.13262 | 20.27339 | 14651 ft | 378 kts | 205° |
| 2026-04-30 13:14 | 52.09688 | 20.24530 | 15600 ft | 385 kts | 205° |
| 2026-04-30 13:15 | 52.07263 | 20.22634 | 16242 ft | 389 kts | 205° |
| 2026-04-30 13:15 | 52.02359 | 20.18808 | 17503 ft | 398 kts | 205° |
| 2026-04-30 13:15 | 51.99815 | 20.16820 | 18157 ft | 403 kts | 205° |
| 2026-04-30 13:16 | 51.97315 | 20.14866 | 18789 ft | 406 kts | 205° |
| 2026-04-30 13:16 | 51.94756 | 20.12872 | 19334 ft | 410 kts | 205° |
| 2026-04-30 13:16 | 51.92171 | 20.10851 | 19873 ft | 414 kts | 205° |
| 2026-04-30 13:17 | 51.86928 | 20.06750 | 20911 ft | 422 kts | 205° |
| 2026-04-30 13:17 | 51.84268 | 20.04685 | 21406 ft | 426 kts | 204° |
| 2026-04-30 13:17 | 51.78859 | 20.00510 | 22399 ft | 435 kts | 204° |
| 2026-04-30 13:18 | 51.76119 | 19.98398 | 22884 ft | 439 kts | 204° |
| 2026-04-30 13:18 | 51.70564 | 19.94115 | 23855 ft | 446 kts | 204° |
| 2026-04-30 13:18 | 51.67749 | 19.91950 | 24264 ft | 450 kts | 204° |
| 2026-04-30 13:19 | 51.64908 | 19.89768 | 24623 ft | 454 kts | 204° |
| 2026-04-30 13:19 | 51.62040 | 19.87576 | 24981 ft | 458 kts | 204° |
| 2026-04-30 13:19 | 51.59148 | 19.85366 | 25338 ft | 462 kts | 204° |
| 2026-04-30 13:19 | 51.56233 | 19.83138 | 25686 ft | 466 kts | 204° |
| 2026-04-30 13:20 | 51.53296 | 19.80897 | 26055 ft | 469 kts | 204° |
| 2026-04-30 13:20 | 51.50334 | 19.78645 | 26417 ft | 472 kts | 203° |
| 2026-04-30 13:20 | 51.47358 | 19.76381 | 26763 ft | 476 kts | 204° |
| 2026-04-30 13:20 | 51.44354 | 19.74098 | 27099 ft | 479 kts | 203° |
| 2026-04-30 13:21 | 51.41333 | 19.71798 | 27428 ft | 483 kts | 203° |
| 2026-04-30 13:21 | 51.38285 | 19.69480 | 27742 ft | 486 kts | 203° |
| 2026-04-30 13:21 | 51.35218 | 19.67161 | 28058 ft | 489 kts | 203° |
| 2026-04-30 13:22 | 51.29024 | 19.62487 | 28732 ft | 495 kts | 203° |
| 2026-04-30 13:22 | 51.25905 | 19.60135 | 29037 ft | 497 kts | 203° |
| 2026-04-30 13:22 | 51.19606 | 19.55394 | 29622 ft | 504 kts | 202° |
| 2026-04-30 13:23 | 51.16424 | 19.53012 | 29911 ft | 507 kts | 202° |
| 2026-04-30 13:23 | 51.10008 | 19.48213 | 30473 ft | 512 kts | 202° |
| 2026-04-30 13:24 | 51.03548 | 19.43383 | 31026 ft | 514 kts | 202° |
| 2026-04-30 13:24 | 50.97061 | 19.38548 | 31563 ft | 516 kts | 202° |
| 2026-04-30 13:25 | 50.90542 | 19.33711 | 32065 ft | 519 kts | 202° |
| 2026-04-30 13:25 | 50.84001 | 19.28875 | 32621 ft | 519 kts | 203° |